Terminal Aerodrome Forecast
Issued by NWS Sterling, VA

Home | Current Version | Previous Version | Text Only | Print | Product List | Glossary On
Versions: 1 2 3 4 5 6 7 8 9 10 11 12 13 14 15 16 17 18 19 20 21 22 23 24
000
FTUS41 KLWX 042321
TAFDCA
TAF
KDCA 042321Z 0500/0524 19010KT P6SM FEW250
     FM050400 19006KT P6SM FEW250
     FM051400 25005KT P6SM SCT110
     FM051600 25005KT P6SM BKN080
     FM051900 25006KT 6SM -SHRA SCT050 BKN080=

USA.gov is the U.S. government's official web portal to all federal, state and local government web resources and services.